sensor_id;sensor_type;location;lat;lon;timestamp;temperature;humidity
15713;DHT22;7957;51.608;6.916;2023-04-01T00:00:37;10.30;99.90
15713;DHT22;7957;51.608;6.916;2023-04-01T00:03:04;10.20;99.90
15713;DHT22;7957;51.608;6.916;2023-04-01T00:05:31;10.20;99.90
15713;DHT22;7957;51.608;6.916;2023-04-01T00:07:58;10.20;99.90
15713;DHT22;7957;51.608;6.916;2023-04-01T00:10:26;10.20;99.90
15713;DHT22;7957;51.608;6.916;2023-04-01T00:12:53;10.20;99.90
15713;DHT22;7957;51.608;6.916;2023-04-01T00:15:21;10.20;99.90
15713;DHT22;7957;51.608;6.916;2023-04-01T00:17:49;10.20;99.90
15713;DHT22;7957;51.608;6.916;2023-04-01T00:20:16;10.20;99.90
15713;DHT22;7957;51.608;6.916;2023-04-01T00:22:43;10.20;99.90
15713;DHT22;7957;51.608;6.916;2023-04-01T00:25:10;10.20;99.90
15713;DHT22;7957;51.608;6.916;2023-04-01T00:27:37;10.20;99.90
15713;DHT22;7957;51.608;6.916;2023-04-01T00:30:05;10.20;99.90
15713;DHT22;7957;51.608;6.916;2023-04-01T00:32:32;10.20;99.90
15713;DHT22;7957;51.608;6.916;2023-04-01T00:35:01;10.20;99.90
15713;DHT22;7957;51.608;6.916;2023-04-01T00:37:28;10.20;99.90
15713;DHT22;7957;51.608;6.916;2023-04-01T00:39:56;10.20;99.90
15713;DHT22;7957;51.608;6.916;2023-04-01T00:42:23;10.20;99.90
15713;DHT22;7957;51.608;6.916;2023-04-01T00:44:52;10.20;99.90
15713;DHT22;7957;51.608;6.916;2023-04-01T00:47:19;10.20;99.90
15713;DHT22;7957;51.608;6.916;2023-04-01T00:49:50;10.20;99.90
15713;DHT22;7957;51.608;6.916;2023-04-01T00:52:21;10.20;99.90
15713;DHT22;7957;51.608;6.916;2023-04-01T00:54:52;10.20;99.90
15713;DHT22;7957;51.608;6.916;2023-04-01T00:57:24;10.10;99.90
15713;DHT22;7957;51.608;6.916;2023-04-01T00:59:54;10.10;99.90
15713;DHT22;7957;51.608;6.916;2023-04-01T01:02:22;10.10;99.90
15713;DHT22;7957;51.608;6.916;2023-04-01T01:04:49;10.10;99.90
15713;DHT22;7957;51.608;6.916;2023-04-01T01:07:25;10.10;99.90
15713;DHT22;7957;51.608;6.916;2023-04-01T01:09:59;10.20;99.90
15713;DHT22;7957;51.608;6.916;2023-04-01T01:12:31;10.10;99.90
15713;DHT22;7957;51.608;6.916;2023-04-01T01:15:07;10.10;99.90
15713;DHT22;7957;51.608;6.916;2023-04-01T01:17:43;10.10;99.90
15713;DHT22;7957;51.608;6.916;2023-04-01T01:26:03;10.10;99.90
15713;DHT22;7957;51.608;6.916;2023-04-01T01:28:44;10.10;99.90
15713;DHT22;7957;51.608;6.916;2023-04-01T01:31:21;10.10;99.90
15713;DHT22;7957;51.608;6.916;2023-04-01T01:33:58;10.10;99.90
15713;DHT22;7957;51.608;6.916;2023-04-01T01:36:32;10.10;99.90
15713;DHT22;7957;51.608;6.916;2023-04-01T01:39:01;10.10;99.90
15713;DHT22;7957;51.608;6.916;2023-04-01T01:41:29;10.10;99.90
15713;DHT22;7957;51.608;6.916;2023-04-01T01:43:58;10.10;99.90
15713;DHT22;7957;51.608;6.916;2023-04-01T01:46:27;10.10;99.90
15713;DHT22;7957;51.608;6.916;2023-04-01T01:48:56;10.10;99.90
15713;DHT22;7957;51.608;6.916;2023-04-01T01:51:24;10.10;99.90
15713;DHT22;7957;51.608;6.916;2023-04-01T01:53:55;10.10;99.90
15713;DHT22;7957;51.608;6.916;2023-04-01T01:56:24;10.10;99.90
15713;DHT22;7957;51.608;6.916;2023-04-01T01:58:56;10.10;99.90
15713;DHT22;7957;51.608;6.916;2023-04-01T02:01:26;10.10;99.90
15713;DHT22;7957;51.608;6.916;2023-04-01T02:03:55;10.10;99.90
15713;DHT22;7957;51.608;6.916;2023-04-01T02:06:26;10.10;99.90
15713;DHT22;7957;51.608;6.916;2023-04-01T02:08:57;10.10;99.90
15713;DHT22;7957;51.608;6.916;2023-04-01T02:11:27;10.10;99.90
15713;DHT22;7957;51.608;6.916;2023-04-01T02:13:58;10.10;99.90
15713;DHT22;7957;51.608;6.916;2023-04-01T02:16:30;10.10;99.90
15713;DHT22;7957;51.608;6.916;2023-04-01T02:18:59;10.00;99.90
15713;DHT22;7957;51.608;6.916;2023-04-01T02:21:31;10.00;99.90
15713;DHT22;7957;51.608;6.916;2023-04-01T02:24:00;10.00;99.90
15713;DHT22;7957;51.608;6.916;2023-04-01T02:26:28;10.00;99.90
15713;DHT22;7957;51.608;6.916;2023-04-01T02:28:57;10.00;99.90
15713;DHT22;7957;51.608;6.916;2023-04-01T02:31:25;10.00;99.90
15713;DHT22;7957;51.608;6.916;2023-04-01T02:33:52;10.00;99.90
15713;DHT22;7957;51.608;6.916;2023-04-01T02:36:20;10.00;99.90
15713;DHT22;7957;51.608;6.916;2023-04-01T02:38:48;10.00;99.90
15713;DHT22;7957;51.608;6.916;2023-04-01T02:41:17;10.00;99.90
15713;DHT22;7957;51.608;6.916;2023-04-01T02:43:44;10.00;99.90
15713;DHT22;7957;51.608;6.916;2023-04-01T02:46:11;10.00;99.90
15713;DHT22;7957;51.608;6.916;2023-04-01T02:48:38;10.00;99.90
15713;DHT22;7957;51.608;6.916;2023-04-01T02:51:05;10.00;99.90
15713;DHT22;7957;51.608;6.916;2023-04-01T02:53:32;10.00;99.90
15713;DHT22;7957;51.608;6.916;2023-04-01T02:55:58;10.00;99.90
15713;DHT22;7957;51.608;6.916;2023-04-01T02:58:27;10.00;99.90
15713;DHT22;7957;51.608;6.916;2023-04-01T03:00:54;10.00;99.90
15713;DHT22;7957;51.608;6.916;2023-04-01T03:03:21;10.00;99.90
15713;DHT22;7957;51.608;6.916;2023-04-01T03:05:48;10.00;99.90
15713;DHT22;7957;51.608;6.916;2023-04-01T03:08:15;9.90;99.90
15713;DHT22;7957;51.608;6.916;2023-04-01T03:10:41;9.90;99.90
15713;DHT22;7957;51.608;6.916;2023-04-01T03:13:08;9.90;99.90
15713;DHT22;7957;51.608;6.916;2023-04-01T03:15:37;9.90;99.90
15713;DHT22;7957;51.608;6.916;2023-04-01T03:18:04;9.90;99.90
15713;DHT22;7957;51.608;6.916;2023-04-01T03:20:31;9.90;99.90
15713;DHT22;7957;51.608;6.916;2023-04-01T03:22:58;9.90;99.90
15713;DHT22;7957;51.608;6.916;2023-04-01T03:25:25;9.90;99.90
15713;DHT22;7957;51.608;6.916;2023-04-01T03:27:52;9.90;99.90
15713;DHT22;7957;51.608;6.916;2023-04-01T03:30:19;9.90;99.90
15713;DHT22;7957;51.608;6.916;2023-04-01T03:32:47;9.90;99.90
15713;DHT22;7957;51.608;6.916;2023-04-01T03:35:14;9.90;99.90
15713;DHT22;7957;51.608;6.916;2023-04-01T03:37:42;9.90;99.90
15713;DHT22;7957;51.608;6.916;2023-04-01T03:40:10;9.90;99.90
15713;DHT22;7957;51.608;6.916;2023-04-01T03:42:37;9.90;99.90
15713;DHT22;7957;51.608;6.916;2023-04-01T03:45:05;9.90;99.90
15713;DHT22;7957;51.608;6.916;2023-04-01T03:47:32;9.90;99.90
15713;DHT22;7957;51.608;6.916;2023-04-01T03:50:00;9.90;99.90
15713;DHT22;7957;51.608;6.916;2023-04-01T03:52:27;9.90;99.90
15713;DHT22;7957;51.608;6.916;2023-04-01T03:54:54;9.90;99.90
15713;DHT22;7957;51.608;6.916;2023-04-01T03:57:22;9.90;99.90
15713;DHT22;7957;51.608;6.916;2023-04-01T03:59:48;9.90;99.90
15713;DHT22;7957;51.608;6.916;2023-04-01T04:02:16;9.90;99.90
15713;DHT22;7957;51.608;6.916;2023-04-01T04:04:43;9.90;99.90
15713;DHT22;7957;51.608;6.916;2023-04-01T04:07:11;9.90;99.90
15713;DHT22;7957;51.608;6.916;2023-04-01T04:09:38;9.90;99.90
15713;DHT22;7957;51.608;6.916;2023-04-01T04:12:06;9.90;99.90
15713;DHT22;7957;51.608;6.916;2023-04-01T04:14:33;9.90;99.90
15713;DHT22;7957;51.608;6.916;2023-04-01T04:17:00;9.90;99.90
15713;DHT22;7957;51.608;6.916;2023-04-01T04:19:31;9.90;99.90
15713;DHT22;7957;51.608;6.916;2023-04-01T04:21:59;9.90;99.90
15713;DHT22;7957;51.608;6.916;2023-04-01T04:24:28;9.90;99.90
15713;DHT22;7957;51.608;6.916;2023-04-01T04:26:55;9.90;99.90
15713;DHT22;7957;51.608;6.916;2023-04-01T04:29:22;9.90;99.90
15713;DHT22;7957;51.608;6.916;2023-04-01T04:31:49;9.90;99.90
15713;DHT22;7957;51.608;6.916;2023-04-01T04:34:16;9.90;99.90
15713;DHT22;7957;51.608;6.916;2023-04-01T04:36:44;9.90;99.90
15713;DHT22;7957;51.608;6.916;2023-04-01T04:39:10;9.90;99.90
15713;DHT22;7957;51.608;6.916;2023-04-01T04:41:39;9.90;99.90
15713;DHT22;7957;51.608;6.916;2023-04-01T04:44:06;9.90;99.90
15713;DHT22;7957;51.608;6.916;2023-04-01T04:46:33;9.90;99.90
15713;DHT22;7957;51.608;6.916;2023-04-01T04:49:01;9.90;99.90
15713;DHT22;7957;51.608;6.916;2023-04-01T04:51:28;9.90;99.90
15713;DHT22;7957;51.608;6.916;2023-04-01T04:53:55;9.90;99.90
15713;DHT22;7957;51.608;6.916;2023-04-01T04:56:22;9.90;99.90
15713;DHT22;7957;51.608;6.916;2023-04-01T04:58:52;9.90;99.90
15713;DHT22;7957;51.608;6.916;2023-04-01T05:01:19;9.90;99.90
15713;DHT22;7957;51.608;6.916;2023-04-01T05:03:46;9.90;99.90
15713;DHT22;7957;51.608;6.916;2023-04-01T05:06:14;9.90;99.90
15713;DHT22;7957;51.608;6.916;2023-04-01T05:08:41;9.90;99.90
15713;DHT22;7957;51.608;6.916;2023-04-01T05:11:11;9.90;99.90
15713;DHT22;7957;51.608;6.916;2023-04-01T05:13:39;9.90;99.90
15713;DHT22;7957;51.608;6.916;2023-04-01T05:16:10;9.90;99.90
15713;DHT22;7957;51.608;6.916;2023-04-01T05:18:41;9.90;99.90
15713;DHT22;7957;51.608;6.916;2023-04-01T05:21:09;9.80;99.90
15713;DHT22;7957;51.608;6.916;2023-04-01T05:23:39;9.90;99.90
15713;DHT22;7957;51.608;6.916;2023-04-01T05:26:08;9.90;99.90
15713;DHT22;7957;51.608;6.916;2023-04-01T05:28:36;9.90;99.90
15713;DHT22;7957;51.608;6.916;2023-04-01T05:31:04;9.90;99.90
15713;DHT22;7957;51.608;6.916;2023-04-01T05:33:33;9.90;99.90
15713;DHT22;7957;51.608;6.916;2023-04-01T05:36:06;9.90;99.90
15713;DHT22;7957;51.608;6.916;2023-04-01T05:38:34;9.90;99.90
15713;DHT22;7957;51.608;6.916;2023-04-01T05:41:01;9.90;99.90
15713;DHT22;7957;51.608;6.916;2023-04-01T05:43:29;9.80;99.90
15713;DHT22;7957;51.608;6.916;2023-04-01T05:45:56;9.90;99.90
15713;DHT22;7957;51.608;6.916;2023-04-01T05:48:23;9.90;99.90
15713;DHT22;7957;51.608;6.916;2023-04-01T05:50:52;9.90;99.90
15713;DHT22;7957;51.608;6.916;2023-04-01T05:53:19;9.80;99.90
15713;DHT22;7957;51.608;6.916;2023-04-01T05:55:46;9.80;99.90
15713;DHT22;7957;51.608;6.916;2023-04-01T05:58:13;9.80;99.90
15713;DHT22;7957;51.608;6.916;2023-04-01T06:00:41;9.80;99.90
15713;DHT22;7957;51.608;6.916;2023-04-01T06:03:07;9.90;99.90
15713;DHT22;7957;51.608;6.916;2023-04-01T06:05:39;9.90;99.90
15713;DHT22;7957;51.608;6.916;2023-04-01T06:08:11;9.90;99.90
15713;DHT22;7957;51.608;6.916;2023-04-01T06:10:49;9.90;99.90
15713;DHT22;7957;51.608;6.916;2023-04-01T06:13:26;9.80;99.90
15713;DHT22;7957;51.608;6.916;2023-04-01T06:16:00;9.90;99.90
15713;DHT22;7957;51.608;6.916;2023-04-01T06:18:45;9.80;99.90
15713;DHT22;7957;51.608;6.916;2023-04-01T06:21:30;9.90;99.90
15713;DHT22;7957;51.608;6.916;2023-04-01T06:24:09;9.90;99.90
15713;DHT22;7957;51.608;6.916;2023-04-01T06:26:48;9.90;99.90
15713;DHT22;7957;51.608;6.916;2023-04-01T06:29:33;9.90;99.90
15713;DHT22;7957;51.608;6.916;2023-04-01T06:32:38;9.90;99.90
15713;DHT22;7957;51.608;6.916;2023-04-01T06:35:28;9.90;99.90
15713;DHT22;7957;51.608;6.916;2023-04-01T06:38:11;9.90;99.90
15713;DHT22;7957;51.608;6.916;2023-04-01T06:41:00;9.90;99.90
15713;DHT22;7957;51.608;6.916;2023-04-01T06:43:37;9.90;99.90
15713;DHT22;7957;51.608;6.916;2023-04-01T06:46:15;9.90;99.90
15713;DHT22;7957;51.608;6.916;2023-04-01T06:49:05;9.90;99.90
15713;DHT22;7957;51.608;6.916;2023-04-01T06:51:39;9.90;99.90
15713;DHT22;7957;51.608;6.916;2023-04-01T06:54:13;9.90;99.90
15713;DHT22;7957;51.608;6.916;2023-04-01T06:56:50;9.90;99.90
15713;DHT22;7957;51.608;6.916;2023-04-01T06:59:22;9.90;99.90
15713;DHT22;7957;51.608;6.916;2023-04-01T07:01:53;9.90;99.90
15713;DHT22;7957;51.608;6.916;2023-04-01T07:04:24;9.90;99.90
15713;DHT22;7957;51.608;6.916;2023-04-01T07:06:55;9.90;99.90
15713;DHT22;7957;51.608;6.916;2023-04-01T07:09:26;9.90;99.90
15713;DHT22;7957;51.608;6.916;2023-04-01T07:11:59;10.00;99.90
15713;DHT22;7957;51.608;6.916;2023-04-01T07:14:30;10.00;99.90
15713;DHT22;7957;51.608;6.916;2023-04-01T07:17:00;10.00;99.90
15713;DHT22;7957;51.608;6.916;2023-04-01T07:19:35;10.00;99.90
15713;DHT22;7957;51.608;6.916;2023-04-01T07:22:05;10.00;99.90
15713;DHT22;7957;51.608;6.916;2023-04-01T07:24:34;10.00;99.90
15713;DHT22;7957;51.608;6.916;2023-04-01T07:27:08;10.00;99.90
15713;DHT22;7957;51.608;6.916;2023-04-01T07:29:36;10.00;99.90
15713;DHT22;7957;51.608;6.916;2023-04-01T07:32:22;10.00;99.90
15713;DHT22;7957;51.608;6.916;2023-04-01T07:35:03;10.00;99.90
15713;DHT22;7957;51.608;6.916;2023-04-01T07:37:39;10.00;99.90
15713;DHT22;7957;51.608;6.916;2023-04-01T07:40:19;10.10;99.90
15713;DHT22;7957;51.608;6.916;2023-04-01T07:43:07;10.00;99.90
15713;DHT22;7957;51.608;6.916;2023-04-01T07:45:40;10.00;99.90
15713;DHT22;7957;51.608;6.916;2023-04-01T07:48:20;10.10;99.90
15713;DHT22;7957;51.608;6.916;2023-04-01T07:50:52;10.00;99.90
15713;DHT22;7957;51.608;6.916;2023-04-01T07:53:31;10.10;99.90
15713;DHT22;7957;51.608;6.916;2023-04-01T07:56:06;10.10;99.90
15713;DHT22;7957;51.608;6.916;2023-04-01T07:58:45;10.10;99.90
15713;DHT22;7957;51.608;6.916;2023-04-01T08:01:18;10.10;99.90
15713;DHT22;7957;51.608;6.916;2023-04-01T08:03:58;10.10;99.90
15713;DHT22;7957;51.608;6.916;2023-04-01T08:06:34;10.10;99.90
15713;DHT22;7957;51.608;6.916;2023-04-01T08:09:09;10.10;99.90
15713;DHT22;7957;51.608;6.916;2023-04-01T08:11:51;10.10;99.90
15713;DHT22;7957;51.608;6.916;2023-04-01T08:14:30;10.20;99.90
15713;DHT22;7957;51.608;6.916;2023-04-01T08:17:04;10.20;99.90
15713;DHT22;7957;51.608;6.916;2023-04-01T08:19:42;10.20;99.90
15713;DHT22;7957;51.608;6.916;2023-04-01T08:22:18;10.20;99.90
15713;DHT22;7957;51.608;6.916;2023-04-01T08:24:48;10.20;99.90
15713;DHT22;7957;51.608;6.916;2023-04-01T08:27:20;10.20;99.90
15713;DHT22;7957;51.608;6.916;2023-04-01T08:29:52;10.20;99.90
15713;DHT22;7957;51.608;6.916;2023-04-01T08:32:26;10.20;99.90
15713;DHT22;7957;51.608;6.916;2023-04-01T08:35:01;10.20;99.90
15713;DHT22;7957;51.608;6.916;2023-04-01T08:37:30;10.20;99.90
15713;DHT22;7957;51.608;6.916;2023-04-01T08:40:01;10.20;99.90
15713;DHT22;7957;51.608;6.916;2023-04-01T08:42:49;10.20;99.90
15713;DHT22;7957;51.608;6.916;2023-04-01T08:45:43;10.30;99.90
15713;DHT22;7957;51.608;6.916;2023-04-01T08:48:27;10.30;99.90
15713;DHT22;7957;51.608;6.916;2023-04-01T08:51:18;10.30;99.90
15713;DHT22;7957;51.608;6.916;2023-04-01T08:54:08;10.30;99.90
15713;DHT22;7957;51.608;6.916;2023-04-01T08:56:41;10.30;99.90
15713;DHT22;7957;51.608;6.916;2023-04-01T08:59:28;10.30;99.90
15713;DHT22;7957;51.608;6.916;2023-04-01T09:02:15;10.30;99.90
15713;DHT22;7957;51.608;6.916;2023-04-01T09:08:24;10.40;99.90
15713;DHT22;7957;51.608;6.916;2023-04-01T09:11:08;10.40;99.90
15713;DHT22;7957;51.608;6.916;2023-04-01T09:13:46;10.40;99.90
15713;DHT22;7957;51.608;6.916;2023-04-01T09:16:23;10.40;99.90
15713;DHT22;7957;51.608;6.916;2023-04-01T09:19:16;10.40;99.90
15713;DHT22;7957;51.608;6.916;2023-04-01T09:22:18;10.50;99.90
15713;DHT22;7957;51.608;6.916;2023-04-01T09:25:19;10.50;99.90
15713;DHT22;7957;51.608;6.916;2023-04-01T09:27:56;10.50;99.90
15713;DHT22;7957;51.608;6.916;2023-04-01T09:30:35;10.60;99.90
15713;DHT22;7957;51.608;6.916;2023-04-01T09:33:49;10.60;99.90
15713;DHT22;7957;51.608;6.916;2023-04-01T09:36:38;10.60;99.90
15713;DHT22;7957;51.608;6.916;2023-04-01T09:39:26;10.60;99.90
15713;DHT22;7957;51.608;6.916;2023-04-01T09:44:43;10.60;99.90
15713;DHT22;7957;51.608;6.916;2023-04-01T09:47:26;10.60;99.90
15713;DHT22;7957;51.608;6.916;2023-04-01T09:50:20;10.70;99.90
15713;DHT22;7957;51.608;6.916;2023-04-01T09:53:07;10.70;99.90
15713;DHT22;7957;51.608;6.916;2023-04-01T09:56:08;10.70;99.90
15713;DHT22;7957;51.608;6.916;2023-04-01T09:59:15;10.70;99.90
15713;DHT22;7957;51.608;6.916;2023-04-01T10:05:27;10.80;99.90
15713;DHT22;7957;51.608;6.916;2023-04-01T10:11:22;10.80;99.90
15713;DHT22;7957;51.608;6.916;2023-04-01T10:14:27;10.80;99.90
15713;DHT22;7957;51.608;6.916;2023-04-01T10:17:19;10.80;99.90
15713;DHT22;7957;51.608;6.916;2023-04-01T10:20:10;10.80;99.90
15713;DHT22;7957;51.608;6.916;2023-04-01T10:22:58;10.90;99.90
15713;DHT22;7957;51.608;6.916;2023-04-01T10:26:00;10.90;99.90
15713;DHT22;7957;51.608;6.916;2023-04-01T10:28:45;10.90;99.90
15713;DHT22;7957;51.608;6.916;2023-04-01T10:31:47;10.90;99.90
15713;DHT22;7957;51.608;6.916;2023-04-01T10:37:53;10.90;99.90
15713;DHT22;7957;51.608;6.916;2023-04-01T10:40:49;11.00;99.90
15713;DHT22;7957;51.608;6.916;2023-04-01T10:43:47;11.00;99.90
15713;DHT22;7957;51.608;6.916;2023-04-01T10:49:48;11.00;99.90
15713;DHT22;7957;51.608;6.916;2023-04-01T10:52:52;11.00;99.90
15713;DHT22;7957;51.608;6.916;2023-04-01T10:55:45;11.00;99.90
15713;DHT22;7957;51.608;6.916;2023-04-01T11:01:58;11.00;99.90
15713;DHT22;7957;51.608;6.916;2023-04-01T11:05:03;11.00;99.90
15713;DHT22;7957;51.608;6.916;2023-04-01T11:11:08;11.10;99.90
15713;DHT22;7957;51.608;6.916;2023-04-01T11:14:14;11.10;99.90
15713;DHT22;7957;51.608;6.916;2023-04-01T11:20:28;11.10;99.90
15713;DHT22;7957;51.608;6.916;2023-04-01T11:23:18;11.10;99.90
15713;DHT22;7957;51.608;6.916;2023-04-01T11:26:12;11.10;99.90
15713;DHT22;7957;51.608;6.916;2023-04-01T11:29:36;11.10;99.90
15713;DHT22;7957;51.608;6.916;2023-04-01T11:32:16;11.10;99.90
15713;DHT22;7957;51.608;6.916;2023-04-01T11:37:55;11.10;99.90
15713;DHT22;7957;51.608;6.916;2023-04-01T11:40:31;11.10;99.90
15713;DHT22;7957;51.608;6.916;2023-04-01T11:43:06;11.10;99.90
15713;DHT22;7957;51.608;6.916;2023-04-01T11:45:37;11.10;99.90
15713;DHT22;7957;51.608;6.916;2023-04-01T11:48:25;11.10;99.90
15713;DHT22;7957;51.608;6.916;2023-04-01T11:51:17;11.10;99.90
15713;DHT22;7957;51.608;6.916;2023-04-01T11:53:52;11.10;99.90
15713;DHT22;7957;51.608;6.916;2023-04-01T11:56:35;11.10;99.90
15713;DHT22;7957;51.608;6.916;2023-04-01T11:59:32;11.00;99.90
15713;DHT22;7957;51.608;6.916;2023-04-01T12:02:11;11.00;99.90
15713;DHT22;7957;51.608;6.916;2023-04-01T12:04:58;11.00;99.90
15713;DHT22;7957;51.608;6.916;2023-04-01T12:07:43;10.90;99.90
15713;DHT22;7957;51.608;6.916;2023-04-01T12:10:17;10.90;99.90
15713;DHT22;7957;51.608;6.916;2023-04-01T12:12:52;10.90;99.90
15713;DHT22;7957;51.608;6.916;2023-04-01T12:15:30;10.90;99.90
15713;DHT22;7957;51.608;6.916;2023-04-01T12:18:09;10.90;99.90
15713;DHT22;7957;51.608;6.916;2023-04-01T12:20:43;10.90;99.90
15713;DHT22;7957;51.608;6.916;2023-04-01T12:23:29;10.90;99.90
15713;DHT22;7957;51.608;6.916;2023-04-01T12:26:15;10.80;99.90
15713;DHT22;7957;51.608;6.916;2023-04-01T12:28:54;10.90;99.90
15713;DHT22;7957;51.608;6.916;2023-04-01T12:31:34;10.90;99.90
15713;DHT22;7957;51.608;6.916;2023-04-01T12:34:49;10.90;99.90
15713;DHT22;7957;51.608;6.916;2023-04-01T12:37:21;10.90;99.90
15713;DHT22;7957;51.608;6.916;2023-04-01T12:40:17;10.80;99.90
15713;DHT22;7957;51.608;6.916;2023-04-01T12:43:02;10.80;99.90
15713;DHT22;7957;51.608;6.916;2023-04-01T12:45:33;10.80;99.90
15713;DHT22;7957;51.608;6.916;2023-04-01T12:48:32;10.80;99.90
15713;DHT22;7957;51.608;6.916;2023-04-01T12:51:47;10.80;99.90
15713;DHT22;7957;51.608;6.916;2023-04-01T13:00:39;10.80;99.90
15713;DHT22;7957;51.608;6.916;2023-04-01T13:03:35;10.80;99.90
15713;DHT22;7957;51.608;6.916;2023-04-01T13:06:32;10.80;99.90
15713;DHT22;7957;51.608;6.916;2023-04-01T13:09:14;10.80;99.90
15713;DHT22;7957;51.608;6.916;2023-04-01T13:11:59;10.80;99.90
15713;DHT22;7957;51.608;6.916;2023-04-01T13:14:54;10.80;99.90
15713;DHT22;7957;51.608;6.916;2023-04-01T13:17:27;10.80;99.90
15713;DHT22;7957;51.608;6.916;2023-04-01T13:20:03;10.80;99.90
15713;DHT22;7957;51.608;6.916;2023-04-01T13:22:45;10.80;99.90
15713;DHT22;7957;51.608;6.916;2023-04-01T13:25:22;10.80;99.90
15713;DHT22;7957;51.608;6.916;2023-04-01T13:27:57;10.80;99.90
15713;DHT22;7957;51.608;6.916;2023-04-01T13:30:32;10.80;99.90
15713;DHT22;7957;51.608;6.916;2023-04-01T13:33:04;10.80;99.90
15713;DHT22;7957;51.608;6.916;2023-04-01T13:35:42;10.80;99.90
15713;DHT22;7957;51.608;6.916;2023-04-01T13:41:21;10.80;99.90
15713;DHT22;7957;51.608;6.916;2023-04-01T13:43:52;10.80;99.90
15713;DHT22;7957;51.608;6.916;2023-04-01T13:46:44;10.80;99.90
15713;DHT22;7957;51.608;6.916;2023-04-01T13:49:40;10.80;99.90
15713;DHT22;7957;51.608;6.916;2023-04-01T13:52:39;10.80;99.90
15713;DHT22;7957;51.608;6.916;2023-04-01T13:55:26;10.90;99.90
15713;DHT22;7957;51.608;6.916;2023-04-01T13:58:15;10.80;99.90
15713;DHT22;7957;51.608;6.916;2023-04-01T14:00:55;10.90;99.90
15713;DHT22;7957;51.608;6.916;2023-04-01T14:03:44;10.90;99.90
15713;DHT22;7957;51.608;6.916;2023-04-01T14:06:31;10.90;99.90
15713;DHT22;7957;51.608;6.916;2023-04-01T14:12:15;10.90;99.90
15713;DHT22;7957;51.608;6.916;2023-04-01T14:14:55;10.90;99.90
15713;DHT22;7957;51.608;6.916;2023-04-01T14:17:34;10.90;99.90
15713;DHT22;7957;51.608;6.916;2023-04-01T14:23:31;10.90;99.90
15713;DHT22;7957;51.608;6.916;2023-04-01T14:26:33;10.90;99.90
15713;DHT22;7957;51.608;6.916;2023-04-01T14:29:16;10.90;99.90
15713;DHT22;7957;51.608;6.916;2023-04-01T14:32:00;10.90;99.90
15713;DHT22;7957;51.608;6.916;2023-04-01T14:34:41;10.90;99.90
15713;DHT22;7957;51.608;6.916;2023-04-01T14:37:19;11.00;99.90
15713;DHT22;7957;51.608;6.916;2023-04-01T14:40:19;11.00;99.90
15713;DHT22;7957;51.608;6.916;2023-04-01T14:46:13;11.00;99.90
15713;DHT22;7957;51.608;6.916;2023-04-01T14:48:50;11.10;99.90
15713;DHT22;7957;51.608;6.916;2023-04-01T14:51:22;11.10;99.90
15713;DHT22;7957;51.608;6.916;2023-04-01T14:54:00;11.10;99.90
15713;DHT22;7957;51.608;6.916;2023-04-01T14:56:36;11.10;99.90
15713;DHT22;7957;51.608;6.916;2023-04-01T14:59:08;11.20;99.90
15713;DHT22;7957;51.608;6.916;2023-04-01T15:01:44;11.20;99.90
15713;DHT22;7957;51.608;6.916;2023-04-01T15:04:33;11.20;99.90
15713;DHT22;7957;51.608;6.916;2023-04-01T15:07:18;11.20;99.90
15713;DHT22;7957;51.608;6.916;2023-04-01T15:09:54;11.30;99.90
15713;DHT22;7957;51.608;6.916;2023-04-01T15:12:30;11.30;99.90
15713;DHT22;7957;51.608;6.916;2023-04-01T15:15:21;11.30;99.90
15713;DHT22;7957;51.608;6.916;2023-04-01T15:18:03;11.30;99.90
15713;DHT22;7957;51.608;6.916;2023-04-01T15:20:51;11.30;99.90
15713;DHT22;7957;51.608;6.916;2023-04-01T15:23:40;11.30;99.90
15713;DHT22;7957;51.608;6.916;2023-04-01T15:26:22;11.30;99.90
15713;DHT22;7957;51.608;6.916;2023-04-01T15:29:06;11.30;99.90
15713;DHT22;7957;51.608;6.916;2023-04-01T15:31:40;11.30;99.90
15713;DHT22;7957;51.608;6.916;2023-04-01T15:34:26;11.20;99.90
15713;DHT22;7957;51.608;6.916;2023-04-01T15:36:59;11.20;99.90
15713;DHT22;7957;51.608;6.916;2023-04-01T15:39:42;11.20;99.90
15713;DHT22;7957;51.608;6.916;2023-04-01T15:42:25;11.20;99.90
15713;DHT22;7957;51.608;6.916;2023-04-01T15:45:12;11.10;99.90
15713;DHT22;7957;51.608;6.916;2023-04-01T15:47:46;11.10;99.90
15713;DHT22;7957;51.608;6.916;2023-04-01T15:50:44;11.10;99.90
15713;DHT22;7957;51.608;6.916;2023-04-01T15:53:28;11.00;99.90
15713;DHT22;7957;51.608;6.916;2023-04-01T15:56:00;11.00;99.90
15713;DHT22;7957;51.608;6.916;2023-04-01T15:58:44;11.00;99.90
15713;DHT22;7957;51.608;6.916;2023-04-01T16:01:25;10.90;99.90
15713;DHT22;7957;51.608;6.916;2023-04-01T16:03:57;10.90;99.90
15713;DHT22;7957;51.608;6.916;2023-04-01T16:06:52;10.90;99.90
15713;DHT22;7957;51.608;6.916;2023-04-01T16:09:49;10.90;99.90
15713;DHT22;7957;51.608;6.916;2023-04-01T16:12:31;10.90;99.90
15713;DHT22;7957;51.608;6.916;2023-04-01T16:15:11;10.90;99.90
15713;DHT22;7957;51.608;6.916;2023-04-01T16:20:49;10.90;99.90
15713;DHT22;7957;51.608;6.916;2023-04-01T16:23:22;10.80;99.90
15713;DHT22;7957;51.608;6.916;2023-04-01T16:25:56;10.80;99.90
15713;DHT22;7957;51.608;6.916;2023-04-01T16:28:29;10.80;99.90
15713;DHT22;7957;51.608;6.916;2023-04-01T16:30:59;10.80;99.90
15713;DHT22;7957;51.608;6.916;2023-04-01T16:33:35;10.80;99.90
15713;DHT22;7957;51.608;6.916;2023-04-01T16:36:10;10.80;99.90
15713;DHT22;7957;51.608;6.916;2023-04-01T16:42:34;10.80;99.90
15713;DHT22;7957;51.608;6.916;2023-04-01T16:45:18;10.80;99.90
15713;DHT22;7957;51.608;6.916;2023-04-01T16:47:49;10.80;99.90
15713;DHT22;7957;51.608;6.916;2023-04-01T16:50:21;10.80;99.90
15713;DHT22;7957;51.608;6.916;2023-04-01T16:52:58;10.80;99.90
15713;DHT22;7957;51.608;6.916;2023-04-01T16:55:48;10.80;99.90
15713;DHT22;7957;51.608;6.916;2023-04-01T16:58:23;10.70;99.90
15713;DHT22;7957;51.608;6.916;2023-04-01T17:00:55;10.70;99.90
15713;DHT22;7957;51.608;6.916;2023-04-01T17:03:28;10.70;99.90
15713;DHT22;7957;51.608;6.916;2023-04-01T17:06:07;10.70;99.90
15713;DHT22;7957;51.608;6.916;2023-04-01T17:08:55;10.70;99.90
15713;DHT22;7957;51.608;6.916;2023-04-01T17:11:27;10.70;99.90
15713;DHT22;7957;51.608;6.916;2023-04-01T17:14:07;10.70;99.90
15713;DHT22;7957;51.608;6.916;2023-04-01T17:19:46;10.70;99.90
15713;DHT22;7957;51.608;6.916;2023-04-01T17:22:25;10.60;99.90
15713;DHT22;7957;51.608;6.916;2023-04-01T17:25:08;10.60;99.90
15713;DHT22;7957;51.608;6.916;2023-04-01T17:27:47;10.60;99.90
15713;DHT22;7957;51.608;6.916;2023-04-01T17:30:28;10.60;99.90
15713;DHT22;7957;51.608;6.916;2023-04-01T17:33:20;10.60;99.90
15713;DHT22;7957;51.608;6.916;2023-04-01T17:35:58;10.60;99.90
15713;DHT22;7957;51.608;6.916;2023-04-01T17:38:45;10.60;99.90
15713;DHT22;7957;51.608;6.916;2023-04-01T17:41:24;10.60;99.90
15713;DHT22;7957;51.608;6.916;2023-04-01T17:43:57;10.60;99.90
15713;DHT22;7957;51.608;6.916;2023-04-01T17:46:37;10.60;99.90
15713;DHT22;7957;51.608;6.916;2023-04-01T17:49:19;10.60;99.90
15713;DHT22;7957;51.608;6.916;2023-04-01T17:51:57;10.60;99.90
15713;DHT22;7957;51.608;6.916;2023-04-01T17:54:31;10.60;99.90
15713;DHT22;7957;51.608;6.916;2023-04-01T17:57:22;10.60;99.90
15713;DHT22;7957;51.608;6.916;2023-04-01T18:00:00;10.60;99.90